Time;durP1;ratioP1;P1;durP2;ratioP2;P2;SDS_P1;SDS_P2;PMS_P1;PMS_P2;Temp;Humidity;BMP_temperature;BMP_pressure;BME280_temperature;BME280_humidity;BME280_pressure;Samples;Min_cycle;Max_cycle;Signal;HPM_P1;HPM_P2
2023/03/10 00:00:53;;;;;;;14.77;11.20;;;;;;;;;;5015114;28;20265;-87
2023/03/10 00:03:23;;;;;;;8.13;7.10;;;;;;;;;;5014952;28;20265;-88
2023/03/10 00:05:51;;;;;;;11.13;8.07;;;;;;;;;;5014312;28;20284;-88
2023/03/10 00:08:20;;;;;;;13.00;9.07;;;;;;;;;;5014609;28;20213;-87
2023/03/10 00:10:48;;;;;;;10.83;7.97;;;;;;;;;;5013982;28;20238;-88
2023/03/10 00:13:17;;;;;;;11.93;9.13;;;;;;;;;;5014382;28;20224;-88
2023/03/10 00:15:45;;;;;;;7.40;6.53;;;;;;;;;;5014561;28;20260;-87
2023/03/10 00:18:14;;;;;;;12.50;11.30;;;;;;;;;;5014278;28;20257;-87
2023/03/10 00:20:43;;;;;;;6.10;5.40;;;;;;;;;;5014886;28;20225;-88
2023/03/10 00:23:12;;;;;;;12.43;9.27;;;;;;;;;;5014550;28;20222;-88
2023/03/10 00:25:40;;;;;;;8.47;5.97;;;;;;;;;;5014433;28;20263;-87
2023/03/10 00:28:09;;;;;;;6.53;5.00;;;;;;;;;;5014804;28;20298;-88
2023/03/10 00:30:37;;;;;;;10.27;7.57;;;;;;;;;;5014375;28;20256;-87
2023/03/10 00:33:05;;;;;;;10.73;8.53;;;;;;;;;;5014364;28;20205;-88
2023/03/10 00:35:34;;;;;;;12.27;8.93;;;;;;;;;;5014020;28;20194;-88
2023/03/10 00:38:04;;;;;;;15.53;5.90;;;;;;;;;;5016541;28;20210;-85
2023/03/10 00:40:32;;;;;;;5.00;4.37;;;;;;;;;;5017200;28;20250;-85
2023/03/10 00:43:00;;;;;;;4.27;3.93;;;;;;;;;;5016568;28;20243;-85
2023/03/10 00:45:29;;;;;;;6.60;6.00;;;;;;;;;;5016698;28;20237;-85
2023/03/10 00:47:58;;;;;;;7.00;5.63;;;;;;;;;;5016784;28;20230;-85
2023/03/10 00:50:26;;;;;;;9.13;7.07;;;;;;;;;;5016904;28;20249;-85
2023/03/10 00:52:55;;;;;;;7.80;5.63;;;;;;;;;;5017019;28;20238;-85
2023/03/10 00:55:24;;;;;;;6.53;5.63;;;;;;;;;;5016513;28;20236;-85
2023/03/10 00:57:53;;;;;;;10.90;8.20;;;;;;;;;;5016532;28;20205;-85
2023/03/10 01:00:22;;;;;;;9.57;7.40;;;;;;;;;;5016704;28;20234;-85
2023/03/10 01:02:51;;;;;;;9.70;8.00;;;;;;;;;;5016988;28;20225;-85
2023/03/10 01:05:20;;;;;;;11.40;7.13;;;;;;;;;;5016503;28;20206;-85
2023/03/10 01:07:48;;;;;;;12.27;6.37;;;;;;;;;;5016058;28;20209;-85
2023/03/10 01:10:17;;;;;;;6.40;4.73;;;;;;;;;;5016377;28;20222;-85
2023/03/10 01:12:46;;;;;;;8.53;4.87;;;;;;;;;;5017063;28;20218;-85
2023/03/10 01:15:15;;;;;;;9.10;6.83;;;;;;;;;;5016697;28;20206;-85
2023/03/10 01:17:43;;;;;;;10.17;7.27;;;;;;;;;;5017427;28;20218;-87
2023/03/10 01:20:15;;;;;;;10.07;8.23;;;;;;;;;;5017264;28;20218;-88
2023/03/10 01:22:43;;;;;;;11.80;8.77;;;;;;;;;;5017280;28;20310;-88
2023/03/10 01:25:15;;;;;;;13.47;10.53;;;;;;;;;;5017302;28;20308;-88
2023/03/10 01:27:43;;;;;;;9.13;7.13;;;;;;;;;;5017338;28;20239;-85
2023/03/10 01:30:14;;;;;;;5.37;4.83;;;;;;;;;;5016377;28;20253;-85
2023/03/10 01:32:42;;;;;;;5.87;4.20;;;;;;;;;;5016414;28;20234;-85
2023/03/10 01:35:11;;;;;;;2.87;2.67;;;;;;;;;;5015592;28;20198;-85
2023/03/10 01:37:40;;;;;;;13.07;10.13;;;;;;;;;;5016344;28;20205;-85
2023/03/10 01:40:15;;;;;;;9.17;7.37;;;;;;;;;;5016758;28;20236;-87
2023/03/10 01:42:43;;;;;;;8.50;6.23;;;;;;;;;;5017047;28;20232;-88
2023/03/10 01:45:26;;;;;;;11.17;8.20;;;;;;;;;;5016840;28;20207;-86
2023/03/10 01:47:56;;;;;;;8.17;7.33;;;;;;;;;;5015329;28;20228;-87
2023/03/10 01:50:25;;;;;;;15.87;11.27;;;;;;;;;;5016291;28;20251;-88
2023/03/10 01:52:57;;;;;;;6.30;5.23;;;;;;;;;;5016246;28;20230;-87
2023/03/10 01:55:27;;;;;;;8.03;6.27;;;;;;;;;;5016031;28;20241;-88
2023/03/10 01:57:56;;;;;;;18.37;13.40;;;;;;;;;;5016478;28;20208;-88
2023/03/10 02:00:26;;;;;;;5.57;4.87;;;;;;;;;;5016660;28;20236;-88
2023/03/10 02:02:58;;;;;;;11.40;9.27;;;;;;;;;;5016340;28;20220;-88
2023/03/10 02:05:28;;;;;;;7.90;6.83;;;;;;;;;;5016904;28;20236;-88
2023/03/10 02:07:57;;;;;;;11.43;7.57;;;;;;;;;;5016474;28;20296;-87
2023/03/10 02:10:27;;;;;;;9.00;7.37;;;;;;;;;;5016300;28;20309;-86
2023/03/10 02:12:55;;;;;;;12.23;8.90;;;;;;;;;;5016420;28;20205;-87
2023/03/10 02:15:24;;;;;;;12.90;9.57;;;;;;;;;;5015619;28;20196;-87
2023/03/10 02:17:53;;;;;;;5.53;3.87;;;;;;;;;;5016197;28;20272;-87
2023/03/10 02:20:26;;;;;;;5.53;4.57;;;;;;;;;;5015480;28;20199;-87
2023/03/10 02:22:56;;;;;;;8.03;5.57;;;;;;;;;;5015107;28;20219;-87
2023/03/10 02:25:29;;;;;;;8.87;5.97;;;;;;;;;;5014851;28;20198;-89
2023/03/10 02:27:59;;;;;;;10.97;8.40;;;;;;;;;;5015493;28;20209;-87
2023/03/10 02:30:30;;;;;;;11.10;6.57;;;;;;;;;;5015825;28;20206;-87
2023/03/10 02:32:59;;;;;;;7.97;5.73;;;;;;;;;;5015601;28;20210;-88
2023/03/10 02:35:28;;;;;;;12.37;9.17;;;;;;;;;;5015619;28;20257;-87
2023/03/10 02:37:56;;;;;;;7.23;5.67;;;;;;;;;;5016140;28;20221;-88
2023/03/10 02:40:31;;;;;;;5.67;4.90;;;;;;;;;;5015549;28;20226;-87
2023/03/10 02:43:01;;;;;;;12.97;9.07;;;;;;;;;;5015132;28;20312;-88
2023/03/10 02:45:32;;;;;;;12.37;8.97;;;;;;;;;;5015326;28;20199;-88
2023/03/10 02:48:00;;;;;;;10.37;7.37;;;;;;;;;;5015744;28;20204;-87
2023/03/10 02:50:30;;;;;;;9.93;7.63;;;;;;;;;;5015407;28;20259;-88
2023/03/10 02:53:02;;;;;;;8.93;7.03;;;;;;;;;;5015649;28;20233;-88
2023/03/10 02:55:31;;;;;;;6.23;4.77;;;;;;;;;;5015647;28;20290;-87
2023/03/10 02:58:01;;;;;;;9.40;7.80;;;;;;;;;;5015035;28;20210;-87
2023/03/10 03:00:29;;;;;;;9.10;6.57;;;;;;;;;;5015328;28;20268;-88
2023/03/10 03:02:58;;;;;;;8.10;6.20;;;;;;;;;;5014557;28;20245;-87
2023/03/10 03:05:26;;;;;;;10.40;7.57;;;;;;;;;;5014721;28;20237;-87
2023/03/10 03:07:55;;;;;;;12.93;9.03;;;;;;;;;;5015184;28;20205;-88
2023/03/10 03:10:23;;;;;;;9.57;6.97;;;;;;;;;;5015536;28;20208;-88
2023/03/10 03:12:51;;;;;;;9.37;6.77;;;;;;;;;;5015533;28;20229;-88
2023/03/10 03:15:21;;;;;;;11.60;8.50;;;;;;;;;;5015636;28;20241;-88
2023/03/10 03:17:50;;;;;;;11.10;9.07;;;;;;;;;;5015054;28;20218;-85
2023/03/10 03:20:20;;;;;;;11.63;7.97;;;;;;;;;;5014242;28;20202;-84
2023/03/10 03:22:48;;;;;;;10.33;7.47;;;;;;;;;;5014009;28;20210;-85
2023/03/10 03:25:18;;;;;;;9.87;6.47;;;;;;;;;;5014357;28;20236;-85
2023/03/10 03:27:46;;;;;;;8.10;7.07;;;;;;;;;;5014002;28;20201;-85
2023/03/10 03:30:16;;;;;;;13.00;10.03;;;;;;;;;;5014123;28;20205;-84
2023/03/10 03:32:46;;;;;;;7.87;6.60;;;;;;;;;;5013942;28;20269;-85
2023/03/10 03:35:16;;;;;;;9.23;7.47;;;;;;;;;;5012875;28;20205;-85
2023/03/10 03:37:45;;;;;;;9.73;6.77;;;;;;;;;;5013695;28;20305;-85
2023/03/10 03:40:14;;;;;;;11.17;8.60;;;;;;;;;;5013875;28;20275;-85
2023/03/10 03:42:43;;;;;;;8.70;7.73;;;;;;;;;;5013982;28;20249;-85
2023/03/10 03:45:12;;;;;;;10.33;8.73;;;;;;;;;;5013650;28;20229;-85
2023/03/10 03:47:43;;;;;;;6.20;4.73;;;;;;;;;;5013724;28;20194;-85
2023/03/10 03:50:14;;;;;;;9.67;6.63;;;;;;;;;;5014272;28;20203;-85
2023/03/10 03:52:42;;;;;;;8.37;6.47;;;;;;;;;;5013885;28;20308;-85
2023/03/10 03:55:13;;;;;;;10.13;6.70;;;;;;;;;;5013736;28;20276;-85
2023/03/10 03:57:43;;;;;;;6.07;5.20;;;;;;;;;;5013331;28;20217;-85
2023/03/10 04:00:14;;;;;;;6.37;5.03;;;;;;;;;;5013928;28;20212;-85
2023/03/10 04:02:43;;;;;;;9.83;7.50;;;;;;;;;;5014572;28;20204;-88
2023/03/10 04:05:12;;;;;;;5.23;4.77;;;;;;;;;;5014041;28;20221;-87
2023/03/10 04:07:42;;;;;;;7.87;5.43;;;;;;;;;;5015033;28;20208;-88
2023/03/10 04:10:12;;;;;;;4.17;3.47;;;;;;;;;;5014888;28;20232;-88
2023/03/10 04:12:40;;;;;;;7.43;4.43;;;;;;;;;;5017054;28;20202;-89
2023/03/10 04:15:09;;;;;;;5.70;4.13;;;;;;;;;;5018042;28;20203;-88
2023/03/10 04:17:37;;;;;;;8.80;5.90;;;;;;;;;;5018493;28;20202;-87
2023/03/10 04:20:07;;;;;;;11.53;8.97;;;;;;;;;;5017944;28;20213;-88
2023/03/10 04:22:36;;;;;;;9.10;6.90;;;;;;;;;;5017930;28;20210;-88
2023/03/10 04:25:07;;;;;;;11.77;8.00;;;;;;;;;;5018005;28;20240;-88
2023/03/10 04:27:35;;;;;;;10.83;7.43;;;;;;;;;;5018115;28;20271;-88
2023/03/10 04:30:05;;;;;;;6.70;6.00;;;;;;;;;;5018031;28;20226;-88
2023/03/10 04:32:34;;;;;;;5.30;4.10;;;;;;;;;;5017774;28;20206;-88
2023/03/10 04:35:03;;;;;;;5.73;4.17;;;;;;;;;;5018028;28;20197;-88
2023/03/10 04:37:31;;;;;;;8.37;7.23;;;;;;;;;;5017171;28;20205;-88
2023/03/10 04:40:07;;;;;;;7.60;6.20;;;;;;;;;;5016752;28;20254;-87
2023/03/10 04:42:37;;;;;;;9.23;6.97;;;;;;;;;;5016700;28;20236;-88
2023/03/10 04:45:05;;;;;;;9.03;7.80;;;;;;;;;;5017043;28;20255;-88
2023/03/10 04:47:34;;;;;;;11.27;9.10;;;;;;;;;;5017767;28;20234;-87
2023/03/10 04:50:02;;;;;;;7.97;6.63;;;;;;;;;;5017894;28;20194;-88
2023/03/10 04:52:31;;;;;;;9.03;7.87;;;;;;;;;;5017556;28;20242;-89
2023/03/10 04:54:59;;;;;;;8.13;5.33;;;;;;;;;;5017906;28;20236;-89
2023/03/10 04:57:27;;;;;;;7.23;5.73;;;;;;;;;;5017874;28;20248;-87
2023/03/10 04:59:57;;;;;;;8.73;7.43;;;;;;;;;;5017676;28;20209;-88
2023/03/10 05:02:29;;;;;;;9.20;6.07;;;;;;;;;;5018181;28;20238;-88
2023/03/10 05:05:00;;;;;;;4.93;4.03;;;;;;;;;;5017423;28;20342;-88
2023/03/10 05:07:28;;;;;;;8.13;7.10;;;;;;;;;;5017072;28;20312;-88
2023/03/10 05:09:57;;;;;;;7.70;5.37;;;;;;;;;;5017637;28;20239;-88
2023/03/10 05:12:25;;;;;;;10.53;6.83;;;;;;;;;;5017354;28;20283;-88
2023/03/10 05:14:54;;;;;;;7.47;6.50;;;;;;;;;;5017203;28;20230;-88
2023/03/10 05:17:25;;;;;;;9.53;7.53;;;;;;;;;;5017125;28;20205;-88
2023/03/10 05:19:53;;;;;;;6.57;5.23;;;;;;;;;;5017230;28;20219;-88
2023/03/10 05:22:22;;;;;;;7.53;6.80;;;;;;;;;;5017294;28;20209;-88
2023/03/10 05:24:50;;;;;;;6.50;5.90;;;;;;;;;;5017560;28;20571;-88
2023/03/10 05:27:20;;;;;;;6.87;5.63;;;;;;;;;;5016695;28;20240;-88
2023/03/10 05:29:49;;;;;;;9.57;8.57;;;;;;;;;;5016566;28;20229;-88
2023/03/10 05:32:17;;;;;;;11.20;9.37;;;;;;;;;;5016664;28;20201;-88
2023/03/10 05:34:47;;;;;;;9.87;7.03;;;;;;;;;;5016932;28;20207;-88
2023/03/10 05:37:15;;;;;;;9.30;6.87;;;;;;;;;;5016661;28;20213;-88
2023/03/10 05:39:44;;;;;;;8.40;5.13;;;;;;;;;;5017389;28;20252;-87
2023/03/10 05:42:12;;;;;;;5.37;4.87;;;;;;;;;;5016642;28;20267;-87
2023/03/10 05:44:41;;;;;;;9.03;5.80;;;;;;;;;;5015670;28;20218;-89
2023/03/10 05:47:09;;;;;;;6.90;5.70;;;;;;;;;;5016431;28;20233;-89
2023/03/10 05:49:38;;;;;;;8.87;5.87;;;;;;;;;;5015730;28;20240;-88
2023/03/10 05:52:08;;;;;;;8.03;5.77;;;;;;;;;;5016496;28;20202;-88
2023/03/10 05:54:36;;;;;;;8.63;7.73;;;;;;;;;;5016764;28;20207;-88
2023/03/10 05:57:05;;;;;;;6.00;5.40;;;;;;;;;;5016633;28;20242;-88
2023/03/10 05:59:33;;;;;;;10.90;5.93;;;;;;;;;;5016491;28;20260;-88
2023/03/10 06:02:02;;;;;;;7.93;6.87;;;;;;;;;;5016590;28;20296;-88
2023/03/10 06:04:32;;;;;;;8.67;7.07;;;;;;;;;;5016088;28;20301;-88
2023/03/10 06:07:01;;;;;;;9.20;7.67;;;;;;;;;;5015893;28;20237;-87
2023/03/10 06:09:31;;;;;;;13.13;7.97;;;;;;;;;;5015740;28;20236;-89
2023/03/10 06:12:00;;;;;;;8.70;6.77;;;;;;;;;;5016288;28;20213;-88
2023/03/10 06:14:28;;;;;;;9.03;7.87;;;;;;;;;;5016009;28;20306;-88
2023/03/10 06:16:57;;;;;;;8.13;5.67;;;;;;;;;;5016103;28;20252;-87
2023/03/10 06:19:26;;;;;;;13.13;5.03;;;;;;;;;;5015787;28;20211;-88
2023/03/10 06:21:54;;;;;;;12.73;7.97;;;;;;;;;;5015745;28;20203;-88
2023/03/10 06:24:23;;;;;;;9.03;6.37;;;;;;;;;;5015942;28;20207;-88
2023/03/10 06:26:52;;;;;;;6.83;4.87;;;;;;;;;;5015472;28;20213;-88
2023/03/10 06:29:21;;;;;;;8.53;6.20;;;;;;;;;;5015160;28;20202;-85
2023/03/10 06:31:49;;;;;;;7.33;6.17;;;;;;;;;;5015231;28;20233;-85
2023/03/10 06:34:18;;;;;;;5.67;4.00;;;;;;;;;;5014046;28;20192;-85
2023/03/10 06:36:46;;;;;;;8.47;6.63;;;;;;;;;;5014726;28;20297;-86
2023/03/10 06:39:14;;;;;;;8.93;7.10;;;;;;;;;;5014964;28;20206;-85
2023/03/10 06:41:43;;;;;;;4.80;3.10;;;;;;;;;;5014317;28;20234;-85
2023/03/10 06:44:17;;;;;;;10.53;6.37;;;;;;;;;;5013853;28;20242;-85
2023/03/10 06:46:46;;;;;;;7.37;6.40;;;;;;;;;;5014012;28;20220;-85
2023/03/10 06:49:14;;;;;;;10.73;8.93;;;;;;;;;;5014371;28;20206;-85
2023/03/10 06:51:43;;;;;;;11.07;8.40;;;;;;;;;;5014956;28;20221;-84
2023/03/10 06:54:11;;;;;;;10.53;7.40;;;;;;;;;;5014615;28;20206;-86
2023/03/10 06:56:39;;;;;;;6.47;4.47;;;;;;;;;;5014481;28;20234;-85
2023/03/10 06:59:08;;;;;;;8.20;6.10;;;;;;;;;;5014121;28;20297;-85
2023/03/10 07:01:38;;;;;;;6.27;4.67;;;;;;;;;;5015007;28;20210;-85
2023/03/10 07:04:06;;;;;;;7.47;5.67;;;;;;;;;;5014461;28;20203;-86
2023/03/10 07:06:35;;;;;;;8.20;6.73;;;;;;;;;;5014068;28;20299;-85
2023/03/10 07:09:03;;;;;;;6.53;4.80;;;;;;;;;;5015012;28;20247;-85
2023/03/10 07:11:32;;;;;;;9.07;6.80;;;;;;;;;;5014348;28;20199;-85
2023/03/10 07:14:00;;;;;;;6.13;5.37;;;;;;;;;;5014087;28;20215;-85
2023/03/10 07:16:29;;;;;;;7.57;6.80;;;;;;;;;;5014596;28;20230;-84
2023/03/10 07:18:58;;;;;;;6.17;4.63;;;;;;;;;;5014645;28;20212;-85
2023/03/10 07:21:27;;;;;;;9.90;6.83;;;;;;;;;;5014640;28;20206;-85
2023/03/10 07:23:55;;;;;;;7.70;5.67;;;;;;;;;;5014552;28;20245;-85
2023/03/10 07:26:24;;;;;;;11.73;8.97;;;;;;;;;;5014421;28;20614;-85
2023/03/10 07:28:53;;;;;;;8.03;5.77;;;;;;;;;;5014648;28;20288;-85
2023/03/10 07:31:21;;;;;;;9.40;7.80;;;;;;;;;;5014086;28;20231;-85
2023/03/10 07:33:49;;;;;;;11.43;9.10;;;;;;;;;;5014457;28;20213;-85
2023/03/10 07:36:21;;;;;;;6.50;5.73;;;;;;;;;;5013911;28;20213;-85
2023/03/10 07:38:49;;;;;;;6.23;5.67;;;;;;;;;;5014062;28;20221;-84
2023/03/10 07:41:19;;;;;;;6.23;5.63;;;;;;;;;;5013731;28;20225;-85
2023/03/10 07:43:48;;;;;;;11.17;8.80;;;;;;;;;;5013750;28;20202;-85
2023/03/10 07:46:17;;;;;;;8.90;5.60;;;;;;;;;;5014186;28;20229;-85
2023/03/10 07:48:45;;;;;;;9.57;6.97;;;;;;;;;;5017662;28;20210;-84
2023/03/10 07:51:14;;;;;;;9.17;5.93;;;;;;;;;;5018078;28;20211;-85
2023/03/10 07:53:44;;;;;;;6.53;4.90;;;;;;;;;;5019035;28;20227;-85
2023/03/10 07:56:13;;;;;;;10.10;8.00;;;;;;;;;;5017969;28;20288;-85
2023/03/10 07:58:42;;;;;;;5.17;4.43;;;;;;;;;;5017727;28;20281;-85
2023/03/10 08:01:15;;;;;;;10.07;7.20;;;;;;;;;;5018207;28;20242;-85
2023/03/10 08:03:43;;;;;;;12.23;8.77;;;;;;;;;;5017611;28;20205;-85
2023/03/10 08:06:16;;;;;;;7.40;5.83;;;;;;;;;;5017989;28;20312;-85
2023/03/10 08:08:46;;;;;;;7.40;6.03;;;;;;;;;;5018554;28;20214;-85
2023/03/10 08:11:14;;;;;;;9.17;7.40;;;;;;;;;;5018133;28;20225;-85
2023/03/10 08:13:44;;;;;;;6.50;5.20;;;;;;;;;;5017736;28;20273;-85
2023/03/10 08:16:13;;;;;;;7.63;6.83;;;;;;;;;;5017949;28;20277;-85
2023/03/10 08:18:42;;;;;;;7.60;6.27;;;;;;;;;;5018257;28;20206;-85
2023/03/10 08:21:10;;;;;;;6.47;5.47;;;;;;;;;;5017890;28;20214;-85
2023/03/10 08:23:39;;;;;;;7.57;6.40;;;;;;;;;;5018012;28;20201;-85
2023/03/10 08:26:10;;;;;;;6.90;5.57;;;;;;;;;;5017848;28;20321;-85
2023/03/10 08:28:38;;;;;;;12.33;8.10;;;;;;;;;;5017577;28;20208;-85
2023/03/10 08:31:08;;;;;;;8.77;6.60;;;;;;;;;;5017247;28;20202;-85
2023/03/10 08:33:36;;;;;;;7.63;6.17;;;;;;;;;;5017796;28;20199;-85
2023/03/10 08:36:06;;;;;;;8.47;7.07;;;;;;;;;;5018102;28;20201;-84
2023/03/10 08:38:35;;;;;;;12.63;10.33;;;;;;;;;;5017376;28;20213;-85
2023/03/10 08:41:12;;;;;;;10.57;8.27;;;;;;;;;;5017812;28;20222;-85
2023/03/10 08:43:41;;;;;;;9.13;6.37;;;;;;;;;;5017496;28;20209;-85
2023/03/10 08:46:10;;;;;;;9.37;7.13;;;;;;;;;;5016873;28;20214;-85
2023/03/10 08:48:39;;;;;;;9.17;6.37;;;;;;;;;;5017438;28;20229;-85
2023/03/10 08:51:11;;;;;;;8.90;6.93;;;;;;;;;;5017538;28;20197;-85
2023/03/10 08:53:45;;;;;;;10.13;7.03;;;;;;;;;;5017311;28;20209;-85
2023/03/10 08:56:15;;;;;;;7.77;5.90;;;;;;;;;;5017047;28;20212;-85
2023/03/10 08:58:44;;;;;;;9.10;7.43;;;;;;;;;;5016020;28;20236;-85
2023/03/10 09:01:12;;;;;;;6.90;5.60;;;;;;;;;;5016515;28;20241;-85
2023/03/10 09:03:43;;;;;;;8.17;6.80;;;;;;;;;;5017201;28;20237;-85
2023/03/10 09:06:13;;;;;;;8.00;5.90;;;;;;;;;;5016503;28;20237;-85
2023/03/10 09:08:41;;;;;;;10.73;7.23;;;;;;;;;;5016162;28;20201;-85
2023/03/10 09:11:10;;;;;;;7.93;6.27;;;;;;;;;;5016070;28;20198;-85
2023/03/10 09:13:40;;;;;;;8.67;6.63;;;;;;;;;;5016429;28;20203;-85
2023/03/10 09:16:09;;;;;;;13.40;8.60;;;;;;;;;;5016113;28;20205;-85
2023/03/10 09:18:38;;;;;;;10.30;8.67;;;;;;;;;;5015639;28;20239;-85
2023/03/10 09:21:07;;;;;;;9.47;7.53;;;;;;;;;;5016223;28;20231;-85
2023/03/10 09:23:35;;;;;;;8.70;7.40;;;;;;;;;;5016164;28;20202;-85
2023/03/10 09:26:04;;;;;;;11.07;9.27;;;;;;;;;;5015938;28;20237;-85
2023/03/10 09:28:32;;;;;;;11.70;9.13;;;;;;;;;;5016156;28;20209;-85
2023/03/10 09:31:03;;;;;;;12.73;9.60;;;;;;;;;;5016619;28;20454;-84
2023/03/10 09:33:33;;;;;;;13.17;10.37;;;;;;;;;;5016023;28;20199;-85
2023/03/10 09:36:02;;;;;;;13.10;9.07;;;;;;;;;;5016018;28;20205;-84
2023/03/10 09:38:35;;;;;;;13.60;10.40;;;;;;;;;;5015840;28;20379;-84
2023/03/10 09:41:08;;;;;;;11.73;8.80;;;;;;;;;;5014514;28;20230;-84
2023/03/10 09:43:38;;;;;;;10.93;8.67;;;;;;;;;;5014974;28;20229;-85
2023/03/10 09:46:12;;;;;;;11.23;8.93;;;;;;;;;;5014728;28;20271;-84
2023/03/10 09:48:45;;;;;;;15.13;9.47;;;;;;;;;;5014452;28;20230;-84
2023/03/10 09:51:16;;;;;;;12.47;10.57;;;;;;;;;;5014581;28;20298;-83
2023/03/10 09:53:52;;;;;;;10.27;8.50;;;;;;;;;;5014413;28;20236;-89
2023/03/10 09:56:30;;;;;;;11.73;9.30;;;;;;;;;;5014367;28;20298;-85
2023/03/10 09:59:00;;;;;;;9.87;8.13;;;;;;;;;;5007376;28;20210;-84
2023/03/10 10:01:32;;;;;;;10.07;8.13;;;;;;;;;;4997080;28;20328;-83
2023/03/10 10:04:01;;;;;;;10.13;7.77;;;;;;;;;;5009752;28;20206;-83
2023/03/10 10:06:32;;;;;;;7.37;5.90;;;;;;;;;;4973863;28;1130566;-84
2023/03/10 10:09:03;;;;;;;9.47;8.47;;;;;;;;;;5011735;28;20209;-84
2023/03/10 10:11:33;;;;;;;9.03;7.87;;;;;;;;;;5007150;28;20221;-83
2023/03/10 10:14:12;;;;;;;6.73;6.13;;;;;;;;;;5009483;28;20203;-83
2023/03/10 10:16:59;;;;;;;9.27;7.93;;;;;;;;;;5010601;28;20209;-84
2023/03/10 10:19:28;;;;;;;13.77;8.17;;;;;;;;;;5008488;28;20214;-84
2023/03/10 10:21:59;;;;;;;9.53;8.17;;;;;;;;;;5014150;28;20249;-83
2023/03/10 10:24:27;;;;;;;11.73;7.97;;;;;;;;;;5010354;28;20219;-84
2023/03/10 10:26:56;;;;;;;9.60;8.43;;;;;;;;;;5002372;28;20208;-83
2023/03/10 10:29:25;;;;;;;8.17;6.23;;;;;;;;;;5003826;28;20287;-83
2023/03/10 10:32:05;;;;;;;8.97;6.70;;;;;;;;;;5006564;28;20231;-84
2023/03/10 10:34:35;;;;;;;7.53;6.53;;;;;;;;;;5009441;28;20217;-84
2023/03/10 10:37:04;;;;;;;10.20;8.73;;;;;;;;;;5008789;28;20270;-84
2023/03/10 10:39:33;;;;;;;10.33;7.23;;;;;;;;;;5007674;28;20305;-83
2023/03/10 10:42:13;;;;;;;9.33;7.43;;;;;;;;;;5007647;28;20210;-84
2023/03/10 10:44:42;;;;;;;8.73;6.70;;;;;;;;;;5008444;28;20225;-83
2023/03/10 10:47:24;;;;;;;10.43;7.90;;;;;;;;;;5010945;28;20255;-83
2023/03/10 10:49:53;;;;;;;8.17;6.53;;;;;;;;;;5006974;28;20228;-84
2023/03/10 10:52:22;;;;;;;12.30;9.23;;;;;;;;;;5006669;28;20242;-84
2023/03/10 10:54:55;;;;;;;8.90;7.17;;;;;;;;;;5003207;28;20204;-84
2023/03/10 10:57:25;;;;;;;7.70;5.47;;;;;;;;;;5011384;28;20198;-84
2023/03/10 10:59:53;;;;;;;9.97;7.77;;;;;;;;;;5010583;28;20211;-84
2023/03/10 11:02:27;;;;;;;10.07;7.60;;;;;;;;;;5007882;28;20226;-84
2023/03/10 11:04:55;;;;;;;7.67;6.13;;;;;;;;;;5005830;28;20218;-85
2023/03/10 11:07:25;;;;;;;8.60;7.67;;;;;;;;;;5011018;28;20225;-84
2023/03/10 11:09:54;;;;;;;11.07;8.83;;;;;;;;;;5004978;28;20206;-85
2023/03/10 11:12:27;;;;;;;10.83;8.43;;;;;;;;;;5009554;28;20206;-86
2023/03/10 11:15:03;;;;;;;9.73;8.03;;;;;;;;;;4997517;28;20208;-85
2023/03/10 11:17:35;;;;;;;9.87;6.40;;;;;;;;;;5004441;28;20230;-85
2023/03/10 11:20:09;;;;;;;12.17;9.10;;;;;;;;;;5004798;28;20305;-89
2023/03/10 11:22:40;;;;;;;11.60;8.73;;;;;;;;;;5011316;28;20241;-89
2023/03/10 11:25:15;;;;;;;8.87;7.23;;;;;;;;;;5014708;28;20282;-89
2023/03/10 11:27:47;;;;;;;8.93;6.83;;;;;;;;;;5011190;28;20218;-88
2023/03/10 11:30:17;;;;;;;13.20;10.57;;;;;;;;;;5009517;28;20209;-89
2023/03/10 11:32:59;;;;;;;13.53;11.00;;;;;;;;;;5010467;28;20297;-87
2023/03/10 11:35:30;;;;;;;8.13;7.30;;;;;;;;;;5012115;28;20234;-89
2023/03/10 11:38:03;;;;;;;9.97;8.97;;;;;;;;;;5011891;28;20333;-87
2023/03/10 11:40:37;;;;;;;10.13;8.33;;;;;;;;;;5001049;28;20276;-88
2023/03/10 11:43:09;;;;;;;9.93;7.90;;;;;;;;;;5009849;28;20264;-89
2023/03/10 11:45:39;;;;;;;12.23;8.93;;;;;;;;;;5008101;28;20244;-88
2023/03/10 11:48:17;;;;;;;12.03;9.47;;;;;;;;;;5009073;28;20237;-88
2023/03/10 11:50:51;;;;;;;8.30;7.10;;;;;;;;;;5006970;28;20239;-88
2023/03/10 11:53:26;;;;;;;9.13;6.47;;;;;;;;;;5003619;28;20213;-87
2023/03/10 11:55:55;;;;;;;11.20;7.43;;;;;;;;;;5006460;28;20307;-87
2023/03/10 11:58:26;;;;;;;12.63;9.73;;;;;;;;;;5014629;28;20203;-88
2023/03/10 12:00:54;;;;;;;9.20;7.80;;;;;;;;;;5004487;28;20222;-86
2023/03/10 12:03:31;;;;;;;14.10;11.50;;;;;;;;;;4988142;28;20203;-88
2023/03/10 12:06:00;;;;;;;10.30;7.77;;;;;;;;;;4986183;28;20248;-87
2023/03/10 12:08:31;;;;;;;9.17;7.23;;;;;;;;;;4999352;28;20226;-88
2023/03/10 12:11:01;;;;;;;7.40;6.40;;;;;;;;;;5002258;28;20206;-88
2023/03/10 12:13:33;;;;;;;9.47;6.77;;;;;;;;;;5002612;28;20211;-88
2023/03/10 12:16:01;;;;;;;10.63;7.53;;;;;;;;;;5005240;28;20270;-88
2023/03/10 12:18:31;;;;;;;8.60;7.70;;;;;;;;;;5002669;28;20211;-88
2023/03/10 12:21:13;;;;;;;8.33;7.40;;;;;;;;;;5000005;28;20214;-88
2023/03/10 12:23:43;;;;;;;11.93;6.87;;;;;;;;;;4999964;28;20239;-86
2023/03/10 12:26:11;;;;;;;10.80;8.43;;;;;;;;;;5000063;28;20233;-86
2023/03/10 12:28:40;;;;;;;9.73;8.70;;;;;;;;;;5001525;28;20257;-85
2023/03/10 12:31:10;;;;;;;8.97;8.07;;;;;;;;;;5007925;28;20206;-86
2023/03/10 12:33:43;;;;;;;13.17;9.10;;;;;;;;;;5009276;28;20214;-86
2023/03/10 12:36:13;;;;;;;12.50;9.40;;;;;;;;;;5009577;28;20200;-89
2023/03/10 12:38:44;;;;;;;11.03;7.93;;;;;;;;;;5017608;28;20273;-87
2023/03/10 12:41:13;;;;;;;11.57;8.20;;;;;;;;;;5021186;28;20238;-90
2023/03/10 12:43:53;;;;;;;9.37;5.80;;;;;;;;;;5018844;28;20209;-89
2023/03/10 12:46:27;;;;;;;12.10;6.47;;;;;;;;;;5016184;28;20285;-93
2023/03/10 12:49:05;;;;;;;11.20;7.20;;;;;;;;;;5022059;28;20219;-89
2023/03/10 12:51:37;;;;;;;5.13;4.70;;;;;;;;;;5020378;28;20218;-89
2023/03/10 12:54:18;;;;;;;3.87;3.53;;;;;;;;;;5011254;28;20209;-91
2023/03/10 12:56:52;;;;;;;9.37;6.33;;;;;;;;;;5021155;28;20213;-90
2023/03/10 12:59:26;;;;;;;2.97;2.77;;;;;;;;;;5013255;28;20284;-90
2023/03/10 13:01:58;;;;;;;0.90;0.90;;;;;;;;;;5010878;28;20473;-90
2023/03/10 13:04:28;;;;;;;0.90;0.90;;;;;;;;;;5014417;28;20239;-89
2023/03/10 13:07:02;;;;;;;0.90;0.90;;;;;;;;;;5010559;28;20235;-89
2023/03/10 13:09:34;;;;;;;1.03;1.03;;;;;;;;;;5015884;28;20260;-89
2023/03/10 13:12:05;;;;;;;0.90;0.90;;;;;;;;;;5015840;28;20289;-85
2023/03/10 13:14:37;;;;;;;3.90;3.80;;;;;;;;;;5008421;28;20216;-86
2023/03/10 13:17:08;;;;;;;1.00;1.00;;;;;;;;;;5014557;28;20192;-86
2023/03/10 13:19:38;;;;;;;4.67;1.77;;;;;;;;;;5017397;28;20240;-84
2023/03/10 13:22:06;;;;;;;1.30;1.30;;;;;;;;;;5004646;28;20273;-86
2023/03/10 13:24:37;;;;;;;0.90;0.90;;;;;;;;;;5005047;28;20239;-85
2023/03/10 13:27:06;;;;;;;1.40;1.40;;;;;;;;;;5003542;28;20215;-83
2023/03/10 13:29:35;;;;;;;1.00;1.00;;;;;;;;;;5002461;28;20268;-84
2023/03/10 13:32:03;;;;;;;1.00;1.00;;;;;;;;;;5010231;28;20240;-83
2023/03/10 13:34:35;;;;;;;1.00;1.00;;;;;;;;;;5003327;28;20223;-82
2023/03/10 13:37:06;;;;;;;1.00;1.00;;;;;;;;;;5004856;28;20260;-82
2023/03/10 13:39:35;;;;;;;1.00;1.00;;;;;;;;;;4998731;28;20201;-82
2023/03/10 13:42:05;;;;;;;0.90;0.90;;;;;;;;;;5009827;28;20200;-82
2023/03/10 13:44:35;;;;;;;1.00;1.00;;;;;;;;;;4994964;28;20283;-85
2023/03/10 13:47:04;;;;;;;1.00;1.00;;;;;;;;;;5001701;28;20255;-83
2023/03/10 13:49:34;;;;;;;0.90;0.90;;;;;;;;;;5013266;28;20248;-83
2023/03/10 13:52:04;;;;;;;1.00;1.00;;;;;;;;;;5005269;28;20458;-83
2023/03/10 13:54:34;;;;;;;1.00;1.00;;;;;;;;;;5007163;28;20209;-84
2023/03/10 13:57:10;;;;;;;4.03;3.83;;;;;;;;;;5003653;28;20257;-83
2023/03/10 13:59:38;;;;;;;1.13;1.13;;;;;;;;;;5004466;28;20321;-84
2023/03/10 14:02:13;;;;;;;1.00;1.00;;;;;;;;;;5005874;28;20207;-82
2023/03/10 14:04:43;;;;;;;1.00;1.00;;;;;;;;;;5003015;28;20211;-83
2023/03/10 14:07:12;;;;;;;1.00;1.00;;;;;;;;;;5004998;28;20269;-83
2023/03/10 14:09:42;;;;;;;1.00;1.00;;;;;;;;;;4999150;28;20259;-82
2023/03/10 14:12:11;;;;;;;1.00;1.00;;;;;;;;;;5004232;28;20224;-82
2023/03/10 14:14:41;;;;;;;0.90;0.90;;;;;;;;;;5001209;28;20305;-82
2023/03/10 14:17:29;;;;;;;1.47;1.47;;;;;;;;;;5007962;28;20198;-81
2023/03/10 14:19:58;;;;;;;1.00;1.00;;;;;;;;;;5003252;28;20218;-80
2023/03/10 14:22:35;;;;;;;0.90;0.90;;;;;;;;;;5005671;28;20203;-81
2023/03/10 14:25:09;;;;;;;1.00;1.00;;;;;;;;;;5009495;28;20212;-80
2023/03/10 14:27:39;;;;;;;1.00;1.00;;;;;;;;;;5004016;28;20306;-80
2023/03/10 14:30:18;;;;;;;1.00;1.00;;;;;;;;;;4998637;28;20229;-80
2023/03/10 14:32:46;;;;;;;1.00;1.00;;;;;;;;;;4997447;28;20205;-81
2023/03/10 14:35:16;;;;;;;1.00;1.00;;;;;;;;;;5007350;28;20292;-80
2023/03/10 14:37:44;;;;;;;0.90;0.90;;;;;;;;;;5004972;28;20212;-81
2023/03/10 14:40:14;;;;;;;1.00;1.00;;;;;;;;;;5002085;28;20307;-81
2023/03/10 14:42:43;;;;;;;0.90;0.90;;;;;;;;;;4998803;28;20298;-80
2023/03/10 14:45:22;;;;;;;0.90;0.90;;;;;;;;;;5002720;28;20220;-80
2023/03/10 14:47:50;;;;;;;0.90;0.90;;;;;;;;;;5003827;28;20229;-80
2023/03/10 14:50:20;;;;;;;1.00;1.00;;;;;;;;;;5001491;28;20308;-80
2023/03/10 14:52:51;;;;;;;1.00;1.00;;;;;;;;;;4998991;28;20291;-81
2023/03/10 14:55:22;;;;;;;0.90;0.90;;;;;;;;;;4998261;28;20219;-81